createdAt,value
2023-10-09T00:00:35.813Z,26.07
2023-10-09T00:03:05.908Z,26.10
2023-10-09T00:05:48.093Z,26.05
2023-10-09T00:08:35.009Z,25.99
2023-10-09T00:11:20.040Z,25.92
2023-10-09T00:13:59.387Z,25.84
2023-10-09T00:16:38.524Z,25.78
2023-10-09T00:19:32.321Z,25.75
2023-10-09T00:22:06.359Z,25.72
2023-10-09T00:24:35.674Z,25.67
2023-10-09T00:27:14.408Z,25.65
2023-10-09T00:29:50.044Z,25.53
2023-10-09T00:32:20.512Z,25.45
2023-10-09T00:34:52.424Z,25.37
2023-10-09T00:37:24.928Z,25.28
2023-10-09T00:40:00.673Z,25.21
2023-10-09T00:42:34.999Z,25.10
2023-10-09T00:45:06.810Z,25.00
2023-10-09T00:47:42.833Z,24.89
2023-10-09T00:50:12.046Z,24.73
2023-10-09T00:53:01.823Z,24.56
2023-10-09T00:55:45.602Z,24.35
2023-10-09T00:58:16.095Z,24.13
2023-10-09T01:00:48.243Z,23.98
2023-10-09T01:03:19.162Z,23.83
2023-10-09T01:06:01.341Z,23.69
2023-10-09T01:08:57.259Z,23.52
2023-10-09T01:11:48.376Z,23.39
2023-10-09T01:14:18.545Z,23.23
2023-10-09T01:16:48.983Z,23.05
2023-10-09T01:19:25.833Z,22.90
2023-10-09T01:21:54.608Z,22.79
2023-10-09T01:24:24.772Z,22.69
2023-10-09T01:26:56.147Z,22.59
2023-10-09T01:29:29.571Z,22.55
2023-10-09T01:32:02.921Z,22.52
2023-10-09T01:34:44.607Z,22.45
2023-10-09T01:37:21.427Z,22.40
2023-10-09T01:39:53.469Z,22.32
2023-10-09T01:42:58.152Z,22.27
2023-10-09T01:45:26.451Z,22.26
2023-10-09T01:47:58.758Z,22.23
2023-10-09T01:50:33.213Z,22.20
2023-10-09T01:53:04.356Z,22.13
2023-10-09T01:55:38.362Z,22.02
2023-10-09T01:58:25.725Z,21.88
2023-10-09T02:00:58.136Z,21.82
2023-10-09T02:03:27.113Z,21.76
2023-10-09T02:06:01.683Z,21.70
2023-10-09T02:08:31.792Z,21.67
2023-10-09T02:11:00.114Z,21.59
2023-10-09T02:13:31.443Z,21.50
2023-10-09T02:16:16.913Z,21.39
2023-10-09T02:19:01.112Z,21.28
2023-10-09T02:21:35.753Z,21.21
2023-10-09T02:24:11.692Z,21.18
2023-10-09T02:27:08.753Z,21.14
2023-10-09T02:29:40.357Z,21.06
2023-10-09T02:32:18.973Z,20.99
2023-10-09T02:34:48.424Z,20.97
2023-10-09T02:37:16.708Z,20.93
2023-10-09T02:39:50.431Z,20.90
2023-10-09T02:42:25.214Z,20.85
2023-10-09T02:44:53.902Z,20.77
2023-10-09T02:47:26.487Z,20.67
2023-10-09T02:50:02.780Z,20.59
2023-10-09T02:52:36.240Z,20.46
2023-10-09T02:55:10.019Z,20.37
2023-10-09T02:57:39.072Z,20.25
2023-10-09T03:00:11.392Z,20.11
2023-10-09T03:02:41.939Z,20.07
2023-10-09T03:05:14.541Z,20.02
2023-10-09T03:07:42.919Z,20.00
2023-10-09T03:10:11.508Z,19.92
2023-10-09T03:12:41.219Z,19.91
2023-10-09T03:15:10.951Z,19.90
2023-10-09T03:17:39.304Z,19.88
2023-10-09T03:20:14.216Z,19.82
2023-10-09T03:22:47.473Z,19.81
2023-10-09T03:25:18.832Z,19.78
2023-10-09T03:27:48.056Z,19.75
2023-10-09T03:30:19.070Z,19.71
2023-10-09T03:32:52.693Z,19.71
2023-10-09T03:35:29.634Z,19.71
2023-10-09T03:38:02.339Z,19.72
2023-10-09T03:40:30.822Z,19.68
2023-10-09T03:42:59.802Z,19.65
2023-10-09T03:45:28.926Z,19.60
2023-10-09T03:48:03.258Z,19.54
2023-10-09T03:50:40.542Z,19.52
2023-10-09T03:53:09.657Z,19.50
2023-10-09T03:55:41.609Z,19.48
2023-10-09T03:58:13.757Z,19.46
2023-10-09T04:00:48.571Z,19.44
2023-10-09T04:03:17.885Z,19.37
2023-10-09T04:05:46.576Z,19.34
2023-10-09T04:08:21.567Z,19.29
2023-10-09T04:10:58.682Z,19.23
2023-10-09T04:13:35.392Z,19.16
2023-10-09T04:16:14.963Z,19.14
2023-10-09T04:18:47.254Z,19.13
2023-10-09T04:21:21.179Z,19.11
2023-10-09T04:24:08.045Z,19.06
2023-10-09T04:26:37.030Z,19.02
2023-10-09T04:29:06.265Z,18.97
2023-10-09T04:31:39.188Z,18.95
2023-10-09T04:34:25.897Z,18.92
2023-10-09T04:37:03.111Z,18.90
2023-10-09T04:39:31.784Z,18.83
2023-10-09T04:42:19.195Z,18.74
2023-10-09T04:45:07.140Z,18.70
2023-10-09T04:47:39.575Z,18.59
2023-10-09T04:50:35.588Z,18.51
2023-10-09T04:53:15.870Z,18.51
2023-10-09T04:55:56.080Z,18.54
2023-10-09T04:58:27.743Z,18.49
2023-10-09T05:00:59.349Z,18.47
2023-10-09T05:03:48.131Z,18.43
2023-10-09T05:06:45.370Z,18.35
2023-10-09T05:09:16.388Z,18.29
2023-10-09T05:11:53.990Z,18.23
2023-10-09T05:14:29.173Z,18.17
2023-10-09T05:16:57.496Z,18.11
2023-10-09T05:19:43.696Z,18.08
2023-10-09T05:22:31.568Z,18.02
2023-10-09T05:25:01.244Z,17.98
2023-10-09T05:27:48.355Z,17.92
2023-10-09T05:30:29.038Z,17.91
2023-10-09T05:33:05.807Z,17.94
2023-10-09T05:36:01.253Z,17.98
2023-10-09T05:38:32.603Z,17.98
2023-10-09T05:41:20.626Z,17.98
2023-10-09T05:44:07.084Z,17.94
2023-10-09T05:46:38.932Z,17.91
2023-10-09T05:49:21.704Z,17.86
2023-10-09T05:51:55.349Z,17.84
2023-10-09T05:54:46.257Z,17.81
2023-10-09T05:57:32.802Z,17.82
2023-10-09T06:00:19.348Z,17.82
2023-10-09T06:03:05.934Z,17.82
2023-10-09T06:05:43.234Z,17.79
2023-10-09T06:08:11.971Z,17.74
2023-10-09T06:10:43.790Z,17.70
2023-10-09T06:13:32.151Z,17.65
2023-10-09T06:16:32.421Z,17.60
2023-10-09T06:19:19.166Z,17.55
2023-10-09T06:22:05.964Z,17.45
2023-10-09T06:24:52.723Z,17.42
2023-10-09T06:27:47.511Z,17.40
2023-10-09T06:30:29.495Z,17.36
2023-10-09T06:33:06.643Z,17.36
2023-10-09T06:35:37.968Z,17.38
2023-10-09T06:38:25.443Z,17.38
2023-10-09T06:40:53.717Z,17.33
2023-10-09T06:43:23.555Z,17.28
2023-10-09T06:46:11.495Z,17.24
2023-10-09T06:48:39.801Z,17.21
2023-10-09T06:51:17.808Z,17.18
2023-10-09T06:53:55.240Z,17.13
2023-10-09T06:56:31.473Z,17.08
2023-10-09T06:59:23.403Z,17.04
2023-10-09T07:02:12.199Z,17.00
2023-10-09T07:04:40.566Z,16.93
2023-10-09T07:07:15.237Z,16.90
2023-10-09T07:10:06.009Z,16.87
2023-10-09T07:12:44.657Z,16.84
2023-10-09T07:15:13.872Z,16.82
2023-10-09T07:17:42.189Z,16.81
2023-10-09T07:20:43.258Z,16.80
2023-10-09T07:23:17.784Z,16.76
2023-10-09T07:26:00.709Z,16.78
2023-10-09T07:28:38.771Z,16.81
2023-10-09T07:31:11.476Z,16.80
2023-10-09T07:33:59.030Z,16.76
2023-10-09T07:36:36.687Z,16.78
2023-10-09T07:39:15.507Z,16.79
2023-10-09T07:41:57.726Z,16.80
2023-10-09T07:44:44.169Z,16.82
2023-10-09T07:47:19.126Z,16.88
2023-10-09T07:49:55.604Z,16.89
2023-10-09T07:52:24.208Z,16.94
2023-10-09T07:54:54.910Z,16.93
2023-10-09T07:57:31.070Z,16.87
2023-10-09T08:00:34.186Z,16.89
2023-10-09T08:03:02.821Z,16.91
2023-10-09T08:05:46.360Z,16.90
2023-10-09T08:08:43.665Z,16.95
2023-10-09T08:11:30.367Z,16.93
2023-10-09T08:13:59.070Z,16.99
2023-10-09T08:16:38.148Z,17.05
2023-10-09T08:19:27.184Z,17.08
2023-10-09T08:22:13.651Z,17.08
2023-10-09T08:24:45.840Z,17.08
2023-10-09T08:27:32.452Z,17.12
2023-10-09T08:30:25.334Z,17.14
2023-10-09T08:35:51.228Z,17.19
2023-10-09T08:38:35.097Z,17.22
2023-10-09T08:41:19.906Z,17.28
2023-10-09T08:43:54.786Z,17.33
2023-10-09T08:46:30.964Z,17.37
2023-10-09T08:49:01.024Z,17.36
2023-10-09T08:51:31.453Z,17.35
2023-10-09T08:53:59.947Z,17.35
2023-10-09T08:56:28.262Z,17.34
2023-10-09T08:58:59.500Z,17.37
2023-10-09T09:01:29.934Z,17.37
2023-10-09T09:03:58.218Z,17.36
2023-10-09T09:06:26.556Z,17.36
2023-10-09T09:09:01.540Z,17.36
2023-10-09T09:11:32.455Z,17.38
2023-10-09T09:14:08.484Z,17.40
2023-10-09T09:16:38.560Z,17.41
2023-10-09T09:19:11.326Z,17.42
2023-10-09T09:21:44.974Z,17.33
2023-10-09T09:24:28.371Z,17.34
2023-10-09T09:27:20.548Z,17.34
2023-10-09T09:29:55.081Z,17.36
2023-10-09T09:32:37.712Z,17.39
2023-10-09T09:35:07.547Z,17.41
2023-10-09T09:37:45.483Z,17.43
2023-10-09T09:40:34.700Z,17.46
2023-10-09T09:43:11.832Z,17.47
2023-10-09T09:45:48.403Z,17.49
2023-10-09T09:48:18.525Z,17.50
2023-10-09T09:50:47.384Z,17.51
2023-10-09T09:53:19.496Z,17.51
2023-10-09T09:55:59.996Z,17.53
2023-10-09T09:58:34.653Z,17.56
2023-10-09T10:01:26.055Z,17.60
2023-10-09T10:04:03.525Z,17.59
2023-10-09T10:06:34.821Z,17.58
2023-10-09T10:09:04.213Z,17.57
2023-10-09T10:11:48.139Z,17.58
2023-10-09T10:14:33.301Z,17.57
2023-10-09T10:17:22.252Z,17.57
2023-10-09T10:20:19.669Z,17.53
2023-10-09T10:22:50.988Z,17.57
2023-10-09T10:25:51.423Z,17.58
2023-10-09T10:28:52.790Z,17.57
2023-10-09T10:31:21.395Z,17.56
2023-10-09T10:33:58.554Z,17.53
2023-10-09T10:36:31.354Z,17.50
2023-10-09T10:39:07.205Z,17.46
2023-10-09T10:41:41.018Z,17.43
2023-10-09T10:44:28.560Z,17.43
2023-10-09T10:46:57.878Z,17.41
2023-10-09T10:49:28.524Z,17.41
2023-10-09T10:52:15.572Z,17.39
2023-10-09T10:54:43.777Z,17.36
2023-10-09T10:57:21.806Z,17.33
2023-10-09T10:59:51.531Z,17.30
2023-10-09T11:02:30.124Z,17.30
2023-10-09T11:05:01.072Z,17.28
2023-10-09T11:07:29.438Z,17.27
2023-10-09T11:10:08.431Z,17.21
2023-10-09T11:12:44.544Z,17.19
2023-10-09T11:15:23.120Z,17.17
2023-10-09T11:18:18.513Z,17.19
2023-10-09T11:21:18.800Z,17.20
2023-10-09T11:23:53.356Z,17.20
2023-10-09T11:26:28.060Z,17.20
2023-10-09T11:29:16.313Z,17.20
2023-10-09T11:32:07.231Z,17.19
2023-10-09T11:34:37.909Z,17.17
2023-10-09T11:37:19.585Z,17.15
2023-10-09T11:39:58.931Z,17.12
2023-10-09T11:42:48.437Z,17.09
2023-10-09T11:45:30.301Z,17.07
2023-10-09T11:48:35.447Z,17.05
2023-10-09T11:51:06.467Z,17.07
2023-10-09T11:53:45.500Z,17.07
2023-10-09T11:56:18.799Z,17.04
2023-10-09T11:58:51.974Z,17.03
2023-10-09T12:01:22.156Z,17.05
2023-10-09T12:03:52.977Z,17.05
2023-10-09T12:06:25.540Z,17.00
2023-10-09T12:08:55.556Z,16.95
2023-10-09T12:11:31.029Z,16.93
2023-10-09T12:14:00.256Z,16.91
2023-10-09T12:16:35.047Z,16.87
2023-10-09T12:19:04.572Z,16.88
2023-10-09T12:21:32.788Z,16.88
2023-10-09T12:24:02.730Z,16.85
2023-10-09T12:26:36.826Z,16.84
2023-10-09T12:29:05.767Z,16.86
2023-10-09T12:31:35.969Z,16.86
2023-10-09T12:34:04.680Z,16.84
2023-10-09T12:36:39.042Z,16.83
2023-10-09T12:39:07.690Z,16.81
2023-10-09T12:41:43.201Z,16.81
2023-10-09T12:44:17.099Z,16.84
2023-10-09T12:46:54.227Z,16.86
2023-10-09T12:49:32.606Z,16.85
2023-10-09T12:52:01.165Z,16.83
2023-10-09T12:54:29.607Z,16.82
2023-10-09T12:56:59.748Z,16.81
2023-10-09T12:59:28.033Z,16.81
2023-10-09T13:01:59.846Z,16.77
2023-10-09T13:04:34.055Z,16.73
2023-10-09T13:07:06.777Z,16.72
2023-10-09T13:09:44.705Z,16.74
2023-10-09T13:12:20.165Z,16.78
2023-10-09T13:14:51.662Z,16.80
2023-10-09T13:17:22.353Z,16.77
2023-10-09T13:19:50.663Z,16.74
2023-10-09T13:22:19.016Z,16.73
2023-10-09T13:24:50.417Z,16.75
2023-10-09T13:27:23.444Z,16.73
2023-10-09T13:29:54.200Z,16.71
2023-10-09T13:32:22.499Z,16.69
2023-10-09T13:34:51.514Z,16.68
2023-10-09T13:37:24.024Z,16.69
2023-10-09T13:39:55.413Z,16.62
2023-10-09T13:42:26.849Z,16.60
2023-10-09T13:44:58.265Z,16.61
2023-10-09T13:47:33.535Z,16.62
2023-10-09T13:50:02.745Z,16.63
2023-10-09T13:52:32.825Z,16.64
2023-10-09T13:55:17.100Z,16.63
2023-10-09T13:57:48.954Z,16.63
2023-10-09T14:00:34.499Z,16.63
2023-10-09T14:03:15.189Z,16.64
2023-10-09T14:06:03.115Z,16.67
2023-10-09T14:08:31.582Z,16.63
2023-10-09T14:11:02.118Z,16.64
2023-10-09T14:13:30.697Z,16.65
2023-10-09T14:16:01.696Z,16.67
2023-10-09T14:18:31.998Z,16.62
2023-10-09T14:21:06.721Z,16.58
2023-10-09T14:23:36.608Z,16.55
2023-10-09T14:26:05.108Z,16.56
2023-10-09T14:28:33.399Z,16.55
2023-10-09T14:31:02.888Z,16.54
2023-10-09T14:33:38.166Z,16.52
2023-10-09T14:36:07.771Z,16.54
2023-10-09T14:38:40.244Z,16.56
2023-10-09T14:41:13.535Z,16.56
2023-10-09T14:43:43.166Z,16.57
2023-10-09T14:46:16.378Z,16.59
2023-10-09T14:48:47.929Z,16.63
2023-10-09T14:51:16.459Z,16.64
2023-10-09T14:53:45.964Z,16.68
2023-10-09T14:56:17.607Z,16.71
2023-10-09T14:58:48.700Z,16.73
2023-10-09T15:01:20.721Z,16.76
2023-10-09T15:03:49.911Z,16.78
2023-10-09T15:06:19.750Z,16.79
2023-10-09T15:08:48.880Z,16.77
2023-10-09T15:11:17.173Z,16.79
2023-10-09T15:13:45.441Z,16.81
2023-10-09T15:16:13.756Z,16.84
2023-10-09T15:18:42.070Z,16.82
2023-10-09T15:21:10.763Z,16.85
2023-10-09T15:23:39.094Z,16.88
2023-10-09T15:26:08.823Z,16.89
2023-10-09T15:28:37.271Z,16.89
2023-10-09T15:31:13.106Z,16.87
2023-10-09T15:33:41.828Z,16.89
2023-10-09T15:36:22.009Z,16.93
2023-10-09T15:38:51.904Z,16.91
2023-10-09T15:41:23.311Z,16.93
2023-10-09T15:43:53.638Z,16.96
2023-10-09T15:46:24.762Z,16.98
2023-10-09T15:48:54.765Z,17.00
2023-10-09T15:51:24.045Z,17.04
2023-10-09T15:53:53.649Z,17.07
2023-10-09T15:56:23.089Z,17.09
2023-10-09T15:58:51.563Z,17.13
2023-10-09T16:01:24.186Z,17.18
2023-10-09T16:03:52.557Z,17.15
2023-10-09T16:06:21.614Z,17.14
2023-10-09T16:08:52.117Z,17.17
2023-10-09T16:11:21.696Z,17.17
2023-10-09T16:13:50.032Z,17.13
2023-10-09T16:16:30.532Z,17.13
2023-10-09T16:19:01.914Z,17.16
2023-10-09T16:21:31.572Z,17.18
2023-10-09T16:24:01.121Z,17.25
2023-10-09T16:26:30.668Z,17.30
2023-10-09T16:29:01.810Z,17.31
2023-10-09T16:31:31.808Z,17.33
2023-10-09T16:34:00.088Z,17.34
2023-10-09T16:36:28.762Z,17.37
2023-10-09T16:38:57.576Z,17.47
2023-10-09T16:41:27.906Z,17.54
2023-10-09T16:43:58.206Z,17.57
2023-10-09T16:46:26.507Z,17.67
2023-10-09T16:48:57.512Z,17.76
2023-10-09T16:51:26.720Z,17.82
2023-10-09T16:53:56.126Z,17.94
2023-10-09T16:56:25.052Z,17.98
2023-10-09T16:58:54.632Z,18.07
2023-10-09T17:01:23.159Z,18.09
2023-10-09T17:04:00.553Z,18.10
2023-10-09T17:06:30.711Z,18.14
2023-10-09T17:08:59.582Z,18.21
2023-10-09T17:11:27.845Z,18.29
2023-10-09T17:13:59.645Z,18.35
2023-10-09T17:16:31.003Z,18.38
2023-10-09T17:19:02.086Z,18.49
2023-10-09T17:21:38.008Z,18.58
2023-10-09T17:24:12.690Z,18.62
2023-10-09T17:26:41.703Z,18.67
2023-10-09T17:29:12.187Z,18.72
2023-10-09T17:31:41.466Z,18.76
2023-10-09T17:34:09.836Z,18.81
2023-10-09T17:36:38.077Z,18.79
2023-10-09T17:39:09.184Z,18.76
2023-10-09T17:41:37.907Z,18.80
2023-10-09T17:44:06.958Z,18.80
2023-10-09T17:46:35.385Z,18.88
2023-10-09T17:49:04.075Z,18.95
2023-10-09T17:51:32.559Z,19.01
2023-10-09T17:54:01.101Z,18.99
2023-10-09T17:56:29.578Z,18.98
2023-10-09T17:59:00.411Z,19.01
2023-10-09T18:01:31.631Z,19.02
2023-10-09T18:04:01.267Z,19.04
2023-10-09T18:06:29.495Z,19.04
2023-10-09T18:08:57.724Z,18.98
2023-10-09T18:11:26.403Z,18.96
2023-10-09T18:13:55.771Z,18.97
2023-10-09T18:16:24.637Z,18.99
2023-10-09T18:18:54.998Z,18.90
2023-10-09T18:21:23.882Z,18.89
2023-10-09T18:23:52.319Z,18.91
2023-10-09T18:26:21.527Z,18.92
2023-10-09T18:28:50.075Z,19.01
2023-10-09T18:31:19.120Z,19.10
2023-10-09T18:33:49.188Z,19.20
2023-10-09T18:36:19.657Z,19.25
2023-10-09T18:38:53.013Z,19.30
2023-10-09T18:41:23.995Z,19.40
2023-10-09T18:43:55.180Z,19.45
2023-10-09T18:46:24.363Z,19.49
2023-10-09T18:48:53.322Z,19.58
2023-10-09T18:51:21.760Z,19.73
2023-10-09T18:53:50.191Z,19.85
2023-10-09T18:56:22.404Z,19.94
2023-10-09T18:58:54.129Z,19.95
2023-10-09T19:01:22.519Z,20.03
2023-10-09T19:03:52.439Z,20.09
2023-10-09T19:06:24.192Z,20.09
2023-10-09T19:08:54.690Z,20.06
2023-10-09T19:11:25.641Z,20.07
2023-10-09T19:13:53.970Z,20.06
2023-10-09T19:16:23.231Z,20.10
2023-10-09T19:18:51.749Z,20.16
2023-10-09T19:21:20.838Z,20.19
2023-10-09T19:23:49.177Z,20.26
2023-10-09T19:26:19.359Z,20.31
2023-10-09T19:28:49.785Z,20.34
2023-10-09T19:31:18.313Z,20.28
2023-10-09T19:33:46.553Z,20.17
2023-10-09T19:36:20.676Z,20.10
2023-10-09T19:38:52.628Z,20.01
2023-10-09T19:41:23.674Z,20.00
2023-10-09T19:43:53.960Z,20.02
2023-10-09T19:46:22.451Z,20.01
2023-10-09T19:48:50.781Z,19.98
2023-10-09T19:51:19.867Z,19.94
2023-10-09T19:53:48.704Z,19.92
2023-10-09T19:56:20.540Z,19.93
2023-10-09T19:58:48.885Z,19.98
2023-10-09T20:01:17.829Z,19.95
2023-10-09T20:03:46.526Z,19.99
2023-10-09T20:06:18.311Z,20.01
2023-10-09T20:08:46.622Z,20.05
2023-10-09T20:11:15.081Z,20.05
2023-10-09T20:13:45.307Z,20.06
2023-10-09T20:16:13.896Z,20.14
2023-10-09T20:18:44.399Z,20.33
2023-10-09T20:21:13.914Z,20.46
2023-10-09T20:23:43.582Z,20.56
2023-10-09T20:26:18.874Z,20.64
2023-10-09T20:28:47.575Z,20.64
2023-10-09T20:31:16.629Z,20.62
2023-10-09T20:33:45.758Z,20.56
2023-10-09T20:36:19.610Z,20.58
2023-10-09T20:38:51.186Z,20.57
2023-10-09T20:41:20.651Z,20.67
2023-10-09T20:43:49.311Z,20.77
2023-10-09T20:46:17.995Z,20.86
2023-10-09T20:48:47.465Z,20.98
2023-10-09T20:51:19.764Z,21.01
2023-10-09T20:53:48.104Z,21.05
2023-10-09T20:56:16.376Z,21.12
2023-10-09T20:58:45.009Z,21.22
2023-10-09T21:03:53.383Z,21.31
2023-10-09T21:06:22.965Z,21.49
2023-10-09T21:08:51.383Z,21.70
2023-10-09T21:11:20.898Z,22.02
2023-10-09T21:13:49.339Z,22.12
2023-10-09T21:16:18.348Z,22.54
2023-10-09T21:18:48.624Z,22.81
2023-10-09T21:21:17.601Z,22.56
2023-10-09T21:23:46.587Z,22.34
2023-10-09T21:26:24.907Z,22.23
2023-10-09T21:28:54.533Z,22.18
2023-10-09T21:31:24.527Z,22.24
2023-10-09T21:33:53.058Z,22.29
2023-10-09T21:36:21.895Z,22.32
2023-10-09T21:38:50.467Z,22.35
2023-10-09T21:41:21.800Z,22.33
2023-10-09T21:43:55.601Z,22.39
2023-10-09T21:46:27.386Z,22.48
2023-10-09T21:48:55.920Z,22.57
2023-10-09T21:51:24.242Z,22.68
2023-10-09T21:53:52.596Z,22.74
2023-10-09T21:56:22.013Z,22.87
2023-10-09T21:58:50.688Z,23.03
2023-10-09T22:01:21.122Z,23.13
2023-10-09T22:03:50.640Z,23.20
2023-10-09T22:06:19.026Z,23.27
2023-10-09T22:08:47.341Z,23.35
2023-10-09T22:11:17.954Z,23.54
2023-10-09T22:13:47.749Z,23.75
2023-10-09T22:16:16.142Z,23.67
2023-10-09T22:18:45.188Z,23.61
2023-10-09T22:21:13.602Z,23.62
2023-10-09T22:23:48.184Z,23.50
2023-10-09T22:26:17.214Z,23.39
2023-10-09T22:28:48.327Z,23.29
2023-10-09T22:31:22.551Z,23.21
2023-10-09T22:33:55.982Z,23.20
2023-10-09T22:36:38.182Z,23.25
2023-10-09T22:39:22.807Z,23.24
2023-10-09T22:41:56.164Z,23.16
2023-10-09T22:44:26.370Z,23.04
2023-10-09T22:46:57.754Z,22.97
2023-10-09T22:49:34.224Z,22.97
2023-10-09T22:52:12.901Z,22.95
2023-10-09T22:54:44.126Z,22.86
2023-10-09T22:57:14.695Z,22.81
2023-10-09T22:59:47.045Z,22.82
2023-10-09T23:02:36.281Z,22.84
2023-10-09T23:05:14.598Z,22.84
2023-10-09T23:07:43.474Z,22.82
2023-10-09T23:10:18.021Z,22.82
2023-10-09T23:12:49.046Z,22.86
2023-10-09T23:15:37.129Z,22.87
2023-10-09T23:18:14.055Z,22.87
2023-10-09T23:21:11.264Z,22.98
2023-10-09T23:23:42.844Z,23.12
2023-10-09T23:26:11.951Z,23.21
2023-10-09T23:28:40.923Z,23.29
2023-10-09T23:31:29.452Z,23.31
2023-10-09T23:33:57.831Z,23.34
2023-10-09T23:36:29.034Z,23.32
2023-10-09T23:39:36.268Z,23.30
2023-10-09T23:42:17.180Z,23.25
2023-10-09T23:44:45.520Z,23.22
2023-10-09T23:47:18.836Z,23.21
2023-10-09T23:49:52.342Z,23.20
2023-10-09T23:52:20.605Z,23.22
2023-10-09T23:54:51.663Z,23.19
2023-10-09T23:57:23.132Z,23.20
2023-10-09T23:59:55.752Z,23.24
